Pride Of Cherbourg — VQAA9 — position and weather

sailwx.info

Track history (hours):
 
Tides and Currents Weather Stations Pressure Air Temp Water Temp Dewpoint Dewpoint Depression Visibility Wind Speed Wind Dir Waves Ship Positions

Pride Of Cherbourg

Operator: P&O European Ferries

Last reported at 2017-Apr-21 23:04 UTC. Time now 2017-Apr-26 11:49 UTC.
Position S 33°50' E 151°19'.

Length 180 m; draft 5 m.

Type: Passenger vessel. MMSI: 235012190.

Date/timePositionNaut miles runAvg speedWind from/ knotsBaromVisibWave heightAir tempDewpointWater temp
2017-Apr-21 23:04S 33°50' E 151°19'1 1.5
2017-Apr-21 22:15S 33°51' E 151°21'1 1.4
2017-Apr-21 21:24S 33°51' E 151°19'512.2
2017-Apr-21 21:00S 33°53' E 151°24'1012.9
2017-Apr-21 20:13S 34°01' E 151°32'1 3.7
2017-Apr-21 19:52S 34°01' E 151°33'2 2.8
2017-Apr-21 19:16S 34°00' E 151°34'1 2.9
2017-Apr-21 18:55S 33°59' E 151°35'1 2.8
2017-Apr-21 18:28S 33°58' E 151°36'1 2.8
2017-Apr-21 18:00S 33°57' E 151°37'1 2.9
2017-Apr-21 17:31S 33°56' E 151°38'1 2.7
2017-Apr-21 16:59S 33°55' E 151°39'1 2.7
2017-Apr-21 16:31S 33°54' E 151°40'  
Track history (hours):
 
Tides and Currents Weather Stations Pressure Air Temp Water Temp Dewpoint Dewpoint Depression Visibility Wind Speed Wind Dir Waves Ship Positions

Pride Of Cherbourg

Operator: P&O European Ferries

Last reported at 2017-Apr-21 23:04 UTC. Time now 2017-Apr-26 11:49 UTC.
Position S 33°50' E 151°19'.

Length 180 m; draft 5 m.

Type: Passenger vessel. MMSI: 235012190.

Date/timePositionNaut miles runAvg speedWind from/ knotsBaromVisibWave heightAir tempDewpointWater temp
2017-Apr-21 23:04S 33°50' E 151°19'1 1.5
2017-Apr-21 22:15S 33°51' E 151°21'1 1.4
2017-Apr-21 21:24S 33°51' E 151°19'512.2
2017-Apr-21 21:00S 33°53' E 151°24'1012.9
2017-Apr-21 20:13S 34°01' E 151°32'1 3.7
2017-Apr-21 19:52S 34°01' E 151°33'2 2.8
2017-Apr-21 19:16S 34°00' E 151°34'1 2.9
2017-Apr-21 18:55S 33°59' E 151°35'1 2.8
2017-Apr-21 18:28S 33°58' E 151°36'1 2.8
2017-Apr-21 18:00S 33°57' E 151°37'1 2.9
2017-Apr-21 17:31S 33°56' E 151°38'1 2.7
2017-Apr-21 16:59S 33°55' E 151°39'1 2.7
2017-Apr-21 16:31S 33°54' E 151°40'  

Dump ship's entire track history